EKCH/CPH METAR and TAF weather

Enter ICAO airport designator
Station Type Date Time Source
EKCH METAR 2020/09/23 02:20 UTC NOAA

EKCH 230220Z 16001KT 0100 R22L/0050N R04L/0200N R12/0200N FG VV005 11/11 Q1004 NOSIG


Station Type Date Time Source
EKCH Decoded METAR 2020/09/23 02:20 UTC NOAA

Koebenhavn / Kastrup, Denmark (EKCH) 55-37N 012-39E 5M
Sep 22, 2020 - 10:20 PM EDT / 2020.09.23 0220 UTC
Wind: from the SSE (160 degrees) at 1 MPH (1 KT):0
Visibility: less than 1 mile:0
Sky conditions: obscured
Weather: fog
Temperature: 51 F (11 C)
Dew Point: 51 F (11 C)
Relative Humidity: 100%
Pressure (altimeter): 29.65 in. Hg (1004 hPa)
ob: EKCH 230220Z 16001KT 0100 R22L/0050N R04L/0200N R12/0200N FG VV005 11/11 Q1004 NOSIG
cycle: 2

Station Type Date Time Source
EKCH TAF 2020/09/23 00:25 UTC NOAA

TAF
AMD EKCH 230018Z 2300/2324 17006KT CAVOK
TEMPO 2300/2307 0200 FG VV002

Example: see airport list